Tuesday, January 22, 2019, 3:57 PM EST
Back to Local

KBHB, Bar Harbor, Hancock County-bar Harbor Airport

Location: Ellsworth, ME, United States Lat: 44.45
Local Time: 3:57 PM EST (20:57 GMT) Lon: -68.367
Time Zone: US/Eastern Elev: 82 ft

Show me the last for .
Show Decoded

2019-01-22 14:56 METAR KBHB 221956Z AUTO 33007G16KT 280V350 10SM CLR M06/M22 A3033 RMK AO2 SLP273
                 T10561217 FZRANO $ =
2019-01-22 13:56 METAR KBHB 221856Z AUTO 30008G16KT 10SM CLR M06/M20 A3028 RMK AO2 SLP259
                 T10611200 FZRANO $ =
2019-01-22 12:56 METAR KBHB 221756Z AUTO 33012G20KT 10SM CLR M07/M21 A3025 RMK AO2 SLP246 60000
                 T10671206 11067 21167 50007 FZRANO $ =
2019-01-22 11:56 METAR KBHB 221656Z AUTO 33009G19KT 280V360 10SM CLR M08/M21 A3025 RMK AO2 SLP247
                 T10781206 FZRANO $ =
2019-01-22 10:56 METAR KBHB 221556Z AUTO 32014G20KT 10SM CLR M09/M22 A3024 RMK AO2 SLP244
                 T10941222 FZRANO $ =
2019-01-22 09:56 METAR KBHB 221456Z AUTO 30011G15KT 10SM CLR M11/M22 A3022 RMK AO2 SLP239 60000
                 T11111222 53036 FZRANO $ =
2019-01-22 08:56 METAR KBHB 221356Z AUTO 30012G17KT 260V330 9SM CLR M13/M23 A3018 RMK AO2
                 SNB41E51 SLP225 P0000 T11331228 FZRANO $ =
2019-01-22 07:56 METAR KBHB 221256Z AUTO 32010G16KT 10SM CLR M16/M24 A3015 RMK AO2 SLP213
                 T11561239 FZRANO $ =
2019-01-22 06:56 METAR KBHB 221156Z AUTO 31008G16KT 10SM CLR M17/M23 A3012 RMK AO2 SLP203 60000
                 T11671233 11144 21167 53038 FZRANO $ =
2019-01-22 05:56 METAR KBHB 221056Z AUTO 31012G17KT 10SM CLR M17/M23 A3008 RMK AO2 SLP189
                 T11671228 FZRANO $ =
2019-01-22 04:56 METAR KBHB 220956Z AUTO 31012G20KT 10SM CLR M16/M22 A3004 RMK AO2 SLP176
                 T11611222 FZRANO $ =
2019-01-22 03:56 METAR KBHB 220856Z AUTO 31008KT 280V340 10SM CLR M16/M21 A3001 RMK AO2 SLP166
                 60000 T11611211 53037 FZRANO $ =
2019-01-22 02:56 METAR KBHB 220756Z AUTO 31010G16KT 10SM BKN047 BKN095 M15/M20 A2997 RMK AO2
                 SNE26 SLP152 P0000 T11501200 FZRANO $ =
2019-01-22 01:56 METAR KBHB 220656Z AUTO 32012G19KT 280V340 7SM -SN OVC090 M14/M19 A2993 RMK AO2
                 SLP141 P0000 T11441189 FZRANO $ =
2019-01-22 01:12 METAR KBHB 220612Z AUTO 31010G15KT 6SM -SN SCT037 BKN095 OVC110 M14/M18 A2990
                 RMK AO2 P0000 FZRANO $ =
2019-01-22 00:56 METAR KBHB 220556Z AUTO 30008G20KT 230V360 2SM -SN BKN037 BKN048 OVC060 M15/M18
                 A2990 RMK AO2 VIS 1 1/2V4 SLP128 P0000 60000 T11501178 11150 21167 51018 FZRANO
                 $ =
2019-01-22 00:54 METAR KBHB 220554Z AUTO 31010G20KT 2SM -SN BKN037 BKN048 OVC080 M15/M18 A2990
                 RMK AO2 VIS 1 1/2V2 1/2 P0000 FZRANO $ =
2019-01-22 00:31 METAR KBHB 220531Z AUTO 30010G16KT 4SM -SN FEW037 SCT055 OVC080 M15/M18 A2988
                 RMK AO2 P0000 FZRANO $ =
2019-01-22 00:16 METAR KBHB 220516Z AUTO 30009G18KT 2 1/2SM -SN SCT037 BKN055 OVC075 M15/M18
                 A2987 RMK AO2 P0000 FZRANO $ =
2019-01-21 23:56 METAR KBHB 220456Z AUTO 31009G16KT 4SM -SN OVC075 M15/M19 A2986 RMK AO2 SLP116
                 P0000 T11501189 FZRANO $ =
2019-01-21 22:56 METAR KBHB 220356Z AUTO 30008G18KT 270V330 9SM -SN FEW037 OVC095 M16/M19 A2984
                 RMK AO2 SLP110 P0000 T11561189 FZRANO $ =
2019-01-21 21:56 METAR KBHB 220256Z AUTO 30010G17KT 7SM -SN OVC070 M16/M20 A2982 RMK AO2 SLP101
                 P0000 60000 T11611200 53019 FZRANO $ =
2019-01-21 20:56 METAR KBHB 220156Z AUTO 30007G14KT 260V330 6SM -SN FEW049 SCT055 OVC085 M17/M20
                 A2980 RMK AO2 SLP094 P0000 T11671200 FZRANO $ =
2019-01-21 19:56 METAR KBHB 220056Z AUTO 31007G16KT 290V350 5SM -SN SCT047 BKN055 OVC090 M17/M20
                 A2978 RMK AO2 SLP089 P0000 T11671200 FZRANO $ =
2019-01-21 18:56 METAR KBHB 212356Z AUTO 32009G16KT 5SM -SN SCT050 BKN060 OVC085 M16/M20 A2976
                 RMK AO2 SLP083 P0000 60000 T11611200 11122 21161 410891161 51030 FZRANO $ =
2019-01-21 17:56 METAR KBHB 212256Z AUTO 31011G16KT 9SM -SN OVC085 M16/M20 A2973 RMK AO2 SLP073
                 P0000 T11611200 FZRANO $ =
2019-01-21 16:56 METAR KBHB 212156Z AUTO 30006G21KT 5SM -SN FEW045 OVC060 M16/M19 A2971 RMK AO2
                 SLP065 P0000 T11561194 FZRANO $ =

Support USWX by starting your Amazon purchase here.